Time;durP1;ratioP1;P1;durP2;ratioP2;P2;SDS_P1;SDS_P2;PMS_P1;PMS_P2;Temp;Humidity;BMP_temperature;BMP_pressure;BME280_temperature;BME280_humidity;BME280_pressure;Samples;Min_cycle;Max_cycle;Signal;HPM_P1;HPM_P2
2021/06/03 00:00:40;;;;;;;8.43;5.32;;;307.60;2304.00;;;;;;5033085;28;20033;-58
2021/06/03 00:03:07;;;;;;;11.77;6.13;;;307.60;2304.00;;;;;;5033261;28;20056;-57
2021/06/03 00:05:47;;;;;;;7.22;5.63;;;307.60;2278.40;;;;;;5033167;28;20104;-58
2021/06/03 00:08:13;;;;;;;9.40;5.20;;;307.60;2304.00;;;;;;5032751;28;20485;-58
2021/06/03 00:10:51;;;;;;;23.05;5.75;;;307.50;2304.00;;;;;;5032779;28;20040;-58
2021/06/03 00:13:21;;;;;;;7.05;5.10;;;307.50;2304.00;;;;;;5032936;28;20036;-58
2021/06/03 00:15:47;;;;;;;9.50;5.95;;;307.40;2304.00;;;;;;5033037;28;20028;-58
2021/06/03 00:18:13;;;;;;;10.82;5.25;;;307.40;2304.00;;;;;;5032684;28;20030;-58
2021/06/03 00:20:39;;;;;;;7.95;5.93;;;307.50;2304.00;;;;;;5032823;28;20029;-59
2021/06/03 00:23:05;;;;;;;23.73;6.13;;;307.40;2304.00;;;;;;5032888;28;20384;-58
2021/06/03 00:25:32;;;;;;;7.75;6.40;;;307.40;2304.00;;;;;;5032495;28;20021;-59
2021/06/03 00:27:58;;;;;;;9.32;5.63;;;307.40;2304.00;;;;;;5032808;28;20018;-59
2021/06/03 00:30:24;;;;;;;6.70;5.40;;;307.30;2304.00;;;;;;5032853;28;20468;-59
2021/06/03 00:32:51;;;;;;;8.13;5.90;;;307.20;2304.00;;;;;;5032447;28;20487;-59
2021/06/03 00:35:17;;;;;;;7.65;5.28;;;307.20;2304.00;;;;;;5032732;28;20463;-60
2021/06/03 00:37:43;;;;;;;6.35;5.30;;;282.50;2278.40;;;;;;5031424;28;20030;-58
2021/06/03 00:40:12;;;;;;;7.00;5.10;;;282.50;2278.40;;;;;;5032489;28;20391;-59
2021/06/03 00:42:39;;;;;;;6.05;5.10;;;282.50;2278.40;;;;;;5032177;28;20037;-58
2021/06/03 00:45:08;;;;;;;5.20;4.70;;;282.40;2278.40;;;;;;5032364;28;20018;-59
2021/06/03 00:47:34;;;;;;;8.20;5.38;;;282.50;2278.40;;;;;;5031988;28;20030;-59
2021/06/03 00:50:00;;;;;;;11.48;5.38;;;282.40;2278.40;;;;;;5031973;28;20064;-57
2021/06/03 00:52:26;;;;;;;13.88;5.20;;;282.30;2278.40;;;;;;5032115;28;20395;-60
2021/06/03 00:54:52;;;;;;;7.53;4.90;;;282.30;2278.40;;;;;;5031887;28;20459;-60
2021/06/03 00:57:18;;;;;;;7.70;5.22;;;282.30;2278.40;;;;;;5032164;28;20068;-59
2021/06/03 00:59:44;;;;;;;6.78;5.18;;;282.40;2278.40;;;;;;5031977;28;20422;-59
2021/06/03 01:02:09;;;;;;;8.23;4.88;;;282.30;2278.40;;;;;;5031645;28;20029;-59
2021/06/03 01:04:36;;;;;;;6.75;5.20;;;282.20;2278.40;;;;;;5032136;28;20447;-59
2021/06/03 01:07:03;;;;;;;7.15;4.95;;;282.10;2278.40;;;;;;5031894;28;20371;-59
2021/06/03 01:09:35;;;;;;;8.05;5.47;;;282.20;2278.40;;;;;;5030680;28;20153;-59
2021/06/03 01:12:20;;;;;;;6.70;5.57;;;282.20;2278.40;;;;;;5031837;28;20391;-60
2021/06/03 01:14:51;;;;;;;6.25;4.70;;;282.10;2278.40;;;;;;5032003;28;20033;-59
2021/06/03 01:17:19;;;;;;;8.48;5.90;;;281.90;2278.40;;;;;;5031675;28;20112;-59
2021/06/03 01:19:46;;;;;;;8.25;5.20;;;281.90;2278.40;;;;;;5031608;28;20033;-59
2021/06/03 01:22:23;;;;;;;7.30;4.93;;;282.00;2278.40;;;;;;5031678;28;20025;-59
2021/06/03 01:24:54;;;;;;;6.70;4.43;;;281.90;2278.40;;;;;;5031325;28;20025;-59
2021/06/03 01:27:26;;;;;;;7.07;4.90;;;282.20;2278.40;;;;;;5031508;28;20030;-58
2021/06/03 01:30:00;;;;;;;8.55;5.80;;;282.20;2278.40;;;;;;5031379;28;20108;-58
2021/06/03 01:32:28;;;;;;;10.27;5.30;;;282.20;2278.40;;;;;;5031455;28;20429;-59
2021/06/03 01:34:55;;;;;;;13.00;5.15;;;282.20;2278.40;;;;;;5031270;28;20095;-59
2021/06/03 01:37:22;;;;;;;10.75;6.05;;;282.20;2278.40;;;;;;5031468;28;20057;-58
2021/06/03 01:39:48;;;;;;;8.00;4.72;;;282.20;2278.40;;;;;;5031351;28;20037;-59
2021/06/03 01:42:16;;;;;;;9.10;5.05;;;282.20;2278.40;;;;;;5031517;28;20030;-58
2021/06/03 01:44:43;;;;;;;7.20;4.97;;;282.30;2278.40;;;;;;5031023;28;20108;-59
2021/06/03 01:47:10;;;;;;;7.32;4.78;;;282.20;2278.40;;;;;;5031026;28;20017;-58
2021/06/03 01:49:37;;;;;;;6.05;5.28;;;282.20;2278.40;;;;;;5030024;28;20053;-58
2021/06/03 01:52:05;;;;;;;6.95;5.18;;;282.10;2278.40;;;;;;5030832;28;20018;-58
2021/06/03 01:54:32;;;;;;;10.00;5.38;;;282.00;2278.40;;;;;;5030940;28;20053;-58
2021/06/03 01:56:59;;;;;;;7.25;5.30;;;281.90;2278.40;;;;;;5031043;28;20391;-59
2021/06/03 01:59:26;;;;;;;7.68;5.13;;;281.90;2278.40;;;;;;5031119;28;20463;-59
2021/06/03 02:01:52;;;;;;;6.78;5.22;;;281.90;2278.40;;;;;;5030802;28;20507;-59
2021/06/03 02:04:18;;;;;;;10.02;5.70;;;281.80;2278.40;;;;;;5030559;28;20025;-58
2021/06/03 02:06:45;;;;;;;8.13;5.32;;;281.80;2278.40;;;;;;5030816;28;20026;-59
2021/06/03 02:09:12;;;;;;;9.50;5.43;;;281.90;2278.40;;;;;;5030611;28;20403;-58
2021/06/03 02:11:45;;;;;;;8.45;5.65;;;282.00;2278.40;;;;;;5030656;28;20032;-60
2021/06/03 02:14:14;;;;;;;7.47;4.70;;;282.00;2278.40;;;;;;5030403;28;20029;-59
2021/06/03 02:16:53;;;;;;;7.95;5.45;;;281.90;2278.40;;;;;;5030418;28;20109;-59
2021/06/03 02:19:33;;;;;;;6.85;5.10;;;281.90;2278.40;;;;;;5030524;28;20021;-58
2021/06/03 02:22:00;;;;;;;5.93;4.80;;;281.70;2278.40;;;;;;5030408;28;20365;-58
2021/06/03 02:24:27;;;;;;;8.43;5.35;;;256.80;2252.80;;;;;;5030495;28;20056;-59
2021/06/03 02:26:54;;;;;;;8.73;5.35;;;256.60;2252.80;;;;;;5030400;28;20029;-58
2021/06/03 02:29:21;;;;;;;10.73;4.88;;;256.60;2252.80;;;;;;5030147;28;20044;-59
2021/06/03 02:31:47;;;;;;;7.57;4.85;;;256.70;2252.80;;;;;;5030500;28;20021;-59
2021/06/03 02:34:13;;;;;;;7.40;4.43;;;256.70;2252.80;;;;;;5030130;28;20067;-56
2021/06/03 02:36:39;;;;;;;7.25;5.10;;;281.60;2278.40;;;;;;5030421;28;20033;-59
2021/06/03 02:39:06;;;;;;;6.90;4.18;;;281.70;2278.40;;;;;;5030496;28;20022;-59
2021/06/03 02:41:32;;;;;;;7.75;4.38;;;281.80;2278.40;;;;;;5029181;28;20399;-59
2021/06/03 02:43:59;;;;;;;7.40;5.50;;;281.80;2278.40;;;;;;5030480;28;20024;-58
2021/06/03 02:46:25;;;;;;;7.75;4.90;;;281.90;2278.40;;;;;;5030272;28;20097;-58
2021/06/03 02:48:51;;;;;;;6.32;4.88;;;281.90;2278.40;;;;;;5029751;28;20506;-59
2021/06/03 02:51:18;;;;;;;9.18;5.38;;;282.00;2278.40;;;;;;5030222;28;20075;-58
2021/06/03 02:53:46;;;;;;;8.05;4.70;;;282.30;2278.40;;;;;;5030210;28;20022;-58
2021/06/03 02:56:15;;;;;;;7.72;4.78;;;281.80;2278.40;;;;;;5029913;28;20013;-59
2021/06/03 02:58:41;;;;;;;7.18;5.07;;;281.60;2278.40;;;;;;5029975;28;20105;-59
2021/06/03 03:01:07;;;;;;;9.10;4.63;;;281.70;2278.40;;;;;;5029727;28;20029;-58
2021/06/03 03:03:33;;;;;;;6.10;4.35;;;281.70;2278.40;;;;;;5029940;28;20025;-58
2021/06/03 03:05:59;;;;;;;9.40;4.53;;;281.80;2278.40;;;;;;5029916;28;20021;-60
2021/06/03 03:08:25;;;;;;;6.82;3.95;;;281.80;2278.40;;;;;;5029080;28;20487;-59
2021/06/03 03:10:54;;;;;;;11.07;5.28;;;281.90;2278.40;;;;;;5029911;28;20021;-60
2021/06/03 03:13:20;;;;;;;8.15;5.00;;;281.90;2278.40;;;;;;5029764;28;20044;-59
2021/06/03 03:15:47;;;;;;;7.85;4.45;;;282.00;2278.40;;;;;;5029846;28;20044;-59
2021/06/03 03:18:13;;;;;;;5.07;3.50;;;282.10;2278.40;;;;;;5029699;28;20144;-59
2021/06/03 03:20:39;;;;;;;7.90;4.57;;;282.30;2278.40;;;;;;5029985;28;20079;-60
2021/06/03 03:23:06;;;;;;;5.05;3.97;;;282.50;2278.40;;;;;;5030045;28;20236;-59
2021/06/03 03:25:34;;;;;;;5.68;3.88;;;307.20;2304.00;;;;;;5029620;28;20028;-59
2021/06/03 03:28:00;;;;;;;8.18;4.68;;;307.30;2304.00;;;;;;5029651;28;20382;-61
2021/06/03 03:30:28;;;;;;;8.48;4.32;;;307.40;2304.00;;;;;;5029932;28;20033;-59
2021/06/03 03:32:55;;;;;;;7.38;4.40;;;307.50;2304.00;;;;;;5030078;28;20025;-59
2021/06/03 03:35:21;;;;;;;7.90;4.75;;;307.60;2304.00;;;;;;5029752;28;20364;-58
2021/06/03 03:37:48;;;;;;;6.32;4.43;;;307.80;2304.00;;;;;;5029804;28;20038;-59
2021/06/03 03:40:19;;;;;;;7.40;4.30;;;307.90;2304.00;;;;;;5029469;28;20515;-59
2021/06/03 03:42:45;;;;;;;7.45;4.70;;;307.80;2304.00;;;;;;5029650;28;20040;-59
2021/06/03 03:45:14;;;;;;;7.25;4.32;;;308.10;2304.00;;;;;;5029656;28;20025;-59
2021/06/03 03:47:40;;;;;;;7.18;4.60;;;308.10;2304.00;;;;;;5029371;28;20021;-59
2021/06/03 03:50:08;;;;;;;6.18;4.50;;;308.10;2304.00;;;;;;5029220;28;20096;-59
2021/06/03 03:52:33;;;;;;;7.25;4.28;;;308.10;2304.00;;;;;;5029088;28;20029;-59
2021/06/03 03:55:00;;;;;;;5.95;3.80;;;308.10;2304.00;;;;;;5029385;28;20025;-60
2021/06/03 03:57:26;;;;;;;8.25;5.03;;;308.10;2304.00;;;;;;5029639;28;20025;-58
2021/06/03 03:59:52;;;;;;;6.47;4.53;;;332.80;2304.00;;;;;;5028996;28;20025;-58
2021/06/03 04:02:18;;;;;;;6.60;4.63;;;332.80;2329.60;;;;;;5029677;28;20080;-58
2021/06/03 04:04:44;;;;;;;7.93;4.57;;;308.10;2304.00;;;;;;5029569;28;20380;-59
2021/06/03 04:07:09;;;;;;;6.40;4.75;;;308.10;2304.00;;;;;;5029277;28;20026;-59
2021/06/03 04:09:35;;;;;;;8.07;4.40;;;332.90;2329.60;;;;;;5029384;28;20090;-58
2021/06/03 04:12:01;;;;;;;6.30;4.43;;;332.90;2329.60;;;;;;5027890;28;20033;-59
2021/06/03 04:14:27;;;;;;;8.43;5.40;;;333.10;2304.00;;;;;;5033034;28;20503;-59
2021/06/03 04:16:53;;;;;;;13.48;6.32;;;333.20;2278.40;;;;;;5032884;28;20044;-61
2021/06/03 04:19:19;;;;;;;10.45;6.30;;;333.20;2304.00;;;;;;5032753;28;20064;-59
2021/06/03 04:21:45;;;;;;;9.60;5.70;;;333.10;2278.40;;;;;;5032917;28;20041;-59
2021/06/03 04:24:11;;;;;;;9.55;4.72;;;333.20;2278.40;;;;;;5032660;28;20026;-60
2021/06/03 04:26:37;;;;;;;8.77;5.75;;;333.30;2278.40;;;;;;5032633;28;20387;-61
2021/06/03 04:29:03;;;;;;;15.00;5.43;;;333.60;2227.20;;;;;;5032649;28;20092;-59
2021/06/03 04:31:29;;;;;;;7.45;5.68;;;333.70;2201.60;;;;;;5032394;28;20374;-59
2021/06/03 04:33:55;;;;;;;7.18;6.47;;;384.10;2099.20;;;;;;5032591;28;20580;-59
2021/06/03 04:36:21;;;;;;;8.95;6.25;;;461.00;1843.20;;;;;;5032591;28;20041;-58
2021/06/03 04:38:47;;;;;;;8.32;7.53;;;537.90;1536.00;;;;;;5032554;28;20502;-59
2021/06/03 04:41:12;;;;;;;7.68;6.30;;;589.40;1331.20;;;;;;5032162;28;20018;-60
2021/06/03 04:43:38;;;;;;;13.10;6.30;;;640.50;1177.60;;;;;;5032627;28;20034;-59
2021/06/03 04:46:04;;;;;;;11.45;6.95;;;691.20;1075.20;;;;;;5032345;28;20021;-59
2021/06/03 04:48:30;;;;;;;6.75;5.57;;;716.80;1024.00;;;;;;5031751;28;20131;-59
2021/06/03 04:50:56;;;;;;;7.03;5.55;;;717.30;972.80;;;;;;5032185;28;20407;-60
2021/06/03 04:53:22;;;;;;;8.13;5.40;;;717.70;947.20;;;;;;5032226;28;20021;-61
2021/06/03 04:55:48;;;;;;;8.35;7.55;;;742.90;921.60;;;;;;5032145;28;20063;-60
2021/06/03 04:58:14;;;;;;;9.52;8.73;;;768.20;870.40;;;;;;5032029;28;20021;-59
2021/06/03 05:00:42;;;;;;;9.10;8.18;;;768.50;870.40;;;;;;5031868;28;20029;-61
2021/06/03 05:03:09;;;;;;;9.02;8.10;;;793.70;844.80;;;;;;5032043;28;20053;-60
2021/06/03 05:05:36;;;;;;;9.25;8.20;;;768.90;819.20;;;;;;5032129;28;20022;-60
2021/06/03 05:08:03;;;;;;;8.75;7.57;;;768.70;844.80;;;;;;5031830;28;20029;-60
2021/06/03 05:10:30;;;;;;;10.18;9.23;;;768.80;819.20;;;;;;5031521;28;20491;-60
2021/06/03 05:12:57;;;;;;;8.85;8.10;;;768.70;819.20;;;;;;5031876;28;20372;-60
2021/06/03 05:15:24;;;;;;;9.00;7.75;;;793.70;844.80;;;;;;5031782;28;20025;-59
2021/06/03 05:17:51;;;;;;;10.55;8.65;;;819.50;819.20;;;;;;5031602;28;20365;-61
2021/06/03 05:20:19;;;;;;;8.13;7.32;;;819.60;793.60;;;;;;5031615;28;20061;-59
2021/06/03 05:22:46;;;;;;;8.05;5.65;;;794.10;844.80;;;;;;5031877;28;20064;-60
2021/06/03 05:25:14;;;;;;;6.22;5.63;;;794.50;844.80;;;;;;5031081;28;20472;-60
2021/06/03 05:27:41;;;;;;;7.25;5.15;;;819.60;819.20;;;;;;5031351;28;20422;-58
2021/06/03 05:30:10;;;;;;;13.32;5.85;;;845.40;768.00;;;;;;5031491;28;20483;-62
2021/06/03 05:32:36;;;;;;;8.30;7.43;;;870.50;742.40;;;;;;5031390;28;20029;-62
2021/06/03 05:35:07;;;;;;;9.98;8.95;;;844.90;793.60;;;;;;5031355;28;20057;-62
2021/06/03 05:37:33;;;;;;;10.23;9.32;;;845.40;768.00;;;;;;5031278;28;20021;-63
2021/06/03 05:39:59;;;;;;;10.48;9.30;;;870.70;716.80;;;;;;5031040;28;20025;-62
2021/06/03 05:42:26;;;;;;;9.18;8.48;;;896.10;691.20;;;;;;5031560;28;20056;-62
2021/06/03 05:44:51;;;;;;;9.50;8.60;;;921.70;665.60;;;;;;5031143;28;20026;-63
2021/06/03 05:47:17;;;;;;;11.10;10.02;;;947.80;614.40;;;;;;5031179;28;20072;-62
2021/06/03 05:49:43;;;;;;;11.20;10.23;;;972.90;614.40;;;;;;5030837;28;20373;-63
2021/06/03 05:52:09;;;;;;;11.07;9.98;;;998.80;588.80;;;;;;5029591;28;20033;-63
2021/06/03 05:54:35;;;;;;;12.70;10.63;;;999.00;563.20;;;;;;5031164;28;20021;-62
2021/06/03 05:57:01;;;;;;;11.15;10.25;;;973.70;563.20;;;;;;5030764;28;20524;-62
2021/06/03 05:59:27;;;;;;;11.90;11.00;;;1024.30;537.60;;;;;;5031003;28;20480;-64
2021/06/03 06:01:59;;;;;;;17.55;11.48;;;999.20;563.20;;;;;;5030764;28;20468;-64
2021/06/03 06:06:51;;;;;;;12.15;11.20;;;1024.20;537.60;;;;;;5030999;28;20119;-63
2021/06/03 06:09:18;;;;;;;13.02;11.98;;;1024.60;512.00;;;;;;5030672;28;20044;-63
2021/06/03 06:11:44;;;;;;;13.05;11.85;;;1049.90;512.00;;;;;;5030771;28;20057;-63
2021/06/03 06:14:10;;;;;;;11.38;10.38;;;1075.40;486.40;;;;;;5030657;28;20029;-63
2021/06/03 06:16:37;;;;;;;12.25;11.25;;;1101.10;486.40;;;;;;5030777;28;20034;-64
2021/06/03 06:19:04;;;;;;;12.77;11.98;;;1101.30;486.40;;;;;;5030336;28;20475;-63
2021/06/03 06:21:30;;;;;;;13.27;12.38;;;1126.70;486.40;;;;;;5030604;28;20092;-63
2021/06/03 06:23:56;;;;;;;11.80;10.75;;;1126.60;486.40;;;;;;5030596;28;20022;-63
2021/06/03 06:26:23;;;;;;;11.77;10.90;;;1101.50;486.40;;;;;;5030355;28;20021;-62
2021/06/03 06:28:49;;;;;;;13.13;12.13;;;1101.10;486.40;;;;;;5030316;28;20029;-63
2021/06/03 06:31:17;;;;;;;14.13;12.90;;;1075.90;486.40;;;;;;5030542;28;20037;-63
2021/06/03 06:33:43;;;;;;;14.68;13.20;;;1101.60;460.80;;;;;;5030222;28;20487;-63
2021/06/03 06:36:10;;;;;;;14.57;13.15;;;1101.60;460.80;;;;;;5029966;28;20800;-63
2021/06/03 06:38:37;;;;;;;14.73;13.32;;;1126.90;460.80;;;;;;5030505;28;20100;-68
2021/06/03 06:41:03;;;;;;;12.07;10.85;;;1101.10;460.80;;;;;;5029986;28;20037;-66
2021/06/03 06:43:29;;;;;;;12.70;11.60;;;1101.00;460.80;;;;;;5030338;28;20059;-65
2021/06/03 06:45:56;;;;;;;12.35;11.55;;;1101.50;435.20;;;;;;5030368;28;20026;-67
2021/06/03 06:48:22;;;;;;;11.77;10.73;;;1101.70;435.20;;;;;;5030003;28;20423;-66
2021/06/03 06:50:49;;;;;;;12.68;11.35;;;1101.50;435.20;;;;;;5030028;28;20511;-66
2021/06/03 06:53:16;;;;;;;12.18;11.38;;;1101.70;435.20;;;;;;5030162;28;20230;-66
2021/06/03 06:55:42;;;;;;;11.90;11.00;;;1126.50;460.80;;;;;;5029694;28;20029;-66
2021/06/03 06:58:08;;;;;;;12.90;12.10;;;1101.70;435.20;;;;;;5016274;28;20030;-66
2021/06/03 07:00:37;;;;;;;12.07;11.02;;;1152.20;409.60;;;;;;5010053;28;20018;-66
2021/06/03 07:03:03;;;;;;;12.57;11.57;;;1152.00;435.20;;;;;;5010077;28;20567;-66
2021/06/03 07:05:29;;;;;;;11.73;10.82;;;1178.10;409.60;;;;;;5010249;28;20030;-66
2021/06/03 07:07:55;;;;;;;11.57;10.68;;;1178.20;409.60;;;;;;5010275;28;20489;-67
2021/06/03 07:10:21;;;;;;;12.45;11.20;;;1203.70;435.20;;;;;;5010155;28;20451;-66
2021/06/03 07:12:48;;;;;;;11.70;10.70;;;1203.30;435.20;;;;;;5010202;28;20029;-65
2021/06/03 07:15:15;;;;;;;11.65;10.95;;;1178.50;409.60;;;;;;5010218;28;20096;-65
2021/06/03 07:17:41;;;;;;;11.63;10.82;;;1152.70;409.60;;;;;;5009882;28;20029;-66
2021/06/03 07:20:10;;;;;;;10.68;9.77;;;1152.40;409.60;;;;;;5010112;28;20034;-67
2021/06/03 07:22:45;;;;;;;10.65;9.85;;;1152.10;409.60;;;;;;5010017;28;20109;-66
2021/06/03 07:25:13;;;;;;;10.93;9.95;;;1152.20;409.60;;;;;;5009782;28;20476;-65
2021/06/03 07:27:42;;;;;;;10.30;9.30;;;1127.10;409.60;;;;;;5010028;28;20033;-65
2021/06/03 07:30:11;;;;;;;10.40;9.50;;;1152.50;409.60;;;;;;5010043;28;20045;-67
2021/06/03 07:32:37;;;;;;;11.43;10.63;;;1152.90;409.60;;;;;;5009926;28;20022;-66
2021/06/03 07:35:09;;;;;;;8.07;7.57;;;1152.70;409.60;;;;;;5009820;28;20022;-66
2021/06/03 07:37:35;;;;;;;11.40;9.15;;;1178.50;409.60;;;;;;5009989;28;20057;-66
2021/06/03 07:40:01;;;;;;;10.63;9.73;;;1177.80;409.60;;;;;;5009686;28;20048;-66
2021/06/03 07:42:27;;;;;;;9.35;8.45;;;1152.90;409.60;;;;;;5009898;28;20018;-66
2021/06/03 07:44:52;;;;;;;9.73;8.77;;;1178.30;409.60;;;;;;5008443;28;20042;-64
2021/06/03 07:47:18;;;;;;;9.98;9.18;;;1203.30;435.20;;;;;;5010364;28;20022;-66
2021/06/03 07:49:44;;;;;;;9.63;8.68;;;1203.60;435.20;;;;;;5013334;28;20081;-66
2021/06/03 07:52:10;;;;;;;9.88;9.13;;;1203.90;435.20;;;;;;5013310;28;20022;-65
2021/06/03 07:54:36;;;;;;;9.45;8.63;;;1203.40;435.20;;;;;;5013501;28;20034;-65
2021/06/03 07:57:03;;;;;;;9.07;8.20;;;1152.70;409.60;;;;;;5013209;28;20038;-66
2021/06/03 07:59:30;;;;;;;11.95;7.80;;;1152.20;409.60;;;;;;5013098;28;20393;-65
2021/06/03 08:01:56;;;;;;;8.70;8.10;;;1152.60;409.60;;;;;;5013445;28;20487;-66
2021/06/03 08:04:22;;;;;;;8.45;7.88;;;1152.60;409.60;;;;;;5013352;28;20029;-64
2021/06/03 08:06:48;;;;;;;10.57;7.55;;;1152.20;409.60;;;;;;5013393;28;20022;-63
2021/06/03 08:09:14;;;;;;;10.15;7.40;;;1101.70;384.00;;;;;;5013125;28;20382;-64
2021/06/03 08:11:43;;;;;;;8.60;7.75;;;1076.10;358.40;;;;;;5013083;28;20025;-63
2021/06/03 08:14:09;;;;;;;7.07;6.38;;;1049.90;435.20;;;;;;5013381;28;20105;-63
2021/06/03 08:16:34;;;;;;;6.13;4.80;;;947.50;460.80;;;;;;5013343;28;20464;-65
2021/06/03 08:19:00;;;;;;;7.28;4.05;;;870.80;537.60;;;;;;5012848;28;20038;-65
2021/06/03 08:21:26;;;;;;;4.57;4.07;;;819.60;614.40;;;;;;5013149;28;20034;-64
2021/06/03 08:23:52;;;;;;;5.78;4.00;;;793.90;614.40;;;;;;5012879;28;20033;-65
2021/06/03 08:26:17;;;;;;;6.05;3.95;;;768.60;691.20;;;;;;5012954;28;20018;-63
2021/06/03 08:28:43;;;;;;;6.53;3.97;;;768.10;716.80;;;;;;5012759;28;20106;-64
2021/06/03 08:31:09;;;;;;;5.03;3.80;;;743.10;691.20;;;;;;5012737;28;20097;-64
2021/06/03 08:33:35;;;;;;;6.65;3.97;;;742.90;716.80;;;;;;5012846;28;20036;-64
2021/06/03 08:36:01;;;;;;;7.93;4.65;;;743.00;716.80;;;;;;5012589;28;20022;-64
2021/06/03 08:38:27;;;;;;;4.00;3.60;;;742.90;716.80;;;;;;5012677;28;20035;-64
2021/06/03 08:40:57;;;;;;;5.57;3.90;;;742.80;742.40;;;;;;5013054;28;20030;-63
2021/06/03 08:43:26;;;;;;;4.38;3.95;;;742.60;742.40;;;;;;5012804;28;20026;-64
2021/06/03 08:45:54;;;;;;;8.80;3.95;;;717.50;716.80;;;;;;5012548;28;20036;-63
2021/06/03 08:48:20;;;;;;;3.63;3.25;;;717.10;768.00;;;;;;5012263;28;20173;-63
2021/06/03 08:50:49;;;;;;;7.25;3.90;;;717.30;793.60;;;;;;5012636;28;20038;-62
2021/06/03 08:53:16;;;;;;;6.85;4.00;;;717.50;793.60;;;;;;5011073;28;20034;-64
2021/06/03 08:58:28;;;;;;;5.47;4.35;;;691.70;742.40;;;;;;5012257;28;20555;-63
2021/06/03 09:00:56;;;;;;;9.40;3.80;;;691.80;768.00;;;;;;5012163;28;20110;-64
2021/06/03 09:03:24;;;;;;;4.53;3.42;;;691.30;793.60;;;;;;5012255;28;20033;-64
2021/06/03 09:05:49;;;;;;;12.50;4.18;;;691.20;793.60;;;;;;5011964;28;20030;-64
2021/06/03 09:08:15;;;;;;;6.70;3.45;;;691.30;819.20;;;;;;5012183;28;20028;-63
2021/06/03 09:10:42;;;;;;;5.70;4.43;;;691.40;819.20;;;;;;5012077;28;20060;-64
2021/06/03 09:13:08;;;;;;;6.57;4.25;;;691.40;793.60;;;;;;5012002;28;20029;-63
2021/06/03 09:15:34;;;;;;;5.07;4.13;;;691.50;819.20;;;;;;5012081;28;20067;-63
2021/06/03 09:18:02;;;;;;;6.32;3.65;;;691.50;793.60;;;;;;5011687;28;20034;-64
2021/06/03 09:20:28;;;;;;;11.30;3.40;;;691.40;819.20;;;;;;5011893;28;20069;-65
2021/06/03 09:22:54;;;;;;;5.82;3.83;;;691.30;768.00;;;;;;5012040;28;20032;-63
2021/06/03 09:25:40;;;;;;;4.72;4.10;;;691.40;793.60;;;;;;5011620;28;20026;-62
2021/06/03 09:28:25;;;;;;;5.88;4.07;;;691.50;819.20;;;;;;5011896;28;20485;-63
2021/06/03 09:31:14;;;;;;;4.20;3.80;;;666.50;870.40;;;;;;5011465;28;20026;-63
2021/06/03 09:33:48;;;;;;;8.05;3.80;;;691.20;844.80;;;;;;5011559;28;20101;-63
2021/06/03 09:36:21;;;;;;;6.15;4.32;;;666.50;819.20;;;;;;5011470;28;20050;-63
2021/06/03 09:39:05;;;;;;;8.30;4.20;;;691.30;819.20;;;;;;5011518;28;20439;-63
2021/06/03 09:41:32;;;;;;;6.28;4.10;;;691.20;819.20;;;;;;5011314;28;20034;-65
2021/06/03 09:44:26;;;;;;;4.55;3.83;;;691.20;819.20;;;;;;5011445;28;20025;-63
2021/06/03 09:47:04;;;;;;;4.95;3.83;;;666.50;819.20;;;;;;5007318;28;20500;-63
2021/06/03 09:49:37;;;;;;;5.32;4.22;;;665.90;844.80;;;;;;5010903;28;20100;-64
2021/06/03 09:52:06;;;;;;;8.40;4.18;;;665.80;844.80;;;;;;5010979;28;20115;-63
2021/06/03 09:54:32;;;;;;;5.78;3.67;;;665.60;844.80;;;;;;5011243;28;20026;-64
2021/06/03 09:57:03;;;;;;;4.70;3.90;;;665.70;819.20;;;;;;5011020;28;20030;-63
2021/06/03 09:59:34;;;;;;;5.20;4.32;;;666.00;844.80;;;;;;5011163;28;20034;-63
2021/06/03 10:02:08;;;;;;;8.85;4.32;;;665.90;844.80;;;;;;5010929;28;20371;-63
2021/06/03 10:04:49;;;;;;;4.72;3.92;;;665.60;870.40;;;;;;5011047;28;20034;-63
2021/06/03 10:07:23;;;;;;;6.05;4.07;;;665.60;844.80;;;;;;5011330;28;20361;-63
2021/06/03 10:09:52;;;;;;;10.00;3.50;;;640.70;844.80;;;;;;5010554;28;20084;-63
2021/06/03 10:12:23;;;;;;;5.75;3.90;;;640.60;844.80;;;;;;5010962;28;20018;-63
2021/06/03 10:15:01;;;;;;;6.63;4.22;;;640.50;870.40;;;;;;5011057;28;20037;-63
2021/06/03 10:17:36;;;;;;;5.05;4.03;;;665.60;896.00;;;;;;5010877;28;20014;-63
2021/06/03 10:20:14;;;;;;;6.25;4.85;;;665.70;896.00;;;;;;5010724;28;20074;-62
2021/06/03 10:22:43;;;;;;;6.22;3.95;;;640.80;844.80;;;;;;5010500;28;20022;-64
2021/06/03 10:25:16;;;;;;;5.95;4.20;;;640.90;844.80;;;;;;5010616;28;20030;-63
2021/06/03 10:27:47;;;;;;;8.10;4.07;;;640.90;844.80;;;;;;5010558;28;20084;-63
2021/06/03 10:30:21;;;;;;;7.97;3.90;;;666.00;870.40;;;;;;5010777;28;20371;-64
2021/06/03 10:32:49;;;;;;;6.47;4.32;;;666.30;870.40;;;;;;5010826;28;20034;-64
2021/06/03 10:35:24;;;;;;;6.68;3.92;;;666.50;896.00;;;;;;5010767;28;20022;-64
2021/06/03 10:37:50;;;;;;;4.97;4.07;;;666.30;844.80;;;;;;5010412;28;20097;-62
2021/06/03 10:40:22;;;;;;;6.20;4.32;;;666.50;844.80;;;;;;5010575;28;20038;-63
2021/06/03 10:42:49;;;;;;;4.25;3.50;;;691.60;844.80;;;;;;5010509;28;20072;-63
2021/06/03 10:45:17;;;;;;;6.95;4.10;;;691.20;793.60;;;;;;5010472;28;20396;-64
2021/06/03 10:47:43;;;;;;;6.38;3.72;;;691.40;793.60;;;;;;5009976;28;20430;-63
2021/06/03 10:50:13;;;;;;;8.63;4.15;;;666.50;793.60;;;;;;5010366;28;20049;-64
2021/06/03 10:52:40;;;;;;;6.50;3.90;;;691.60;793.60;;;;;;5010309;28;20132;-64
2021/06/03 10:55:07;;;;;;;8.55;4.03;;;691.80;819.20;;;;;;5010435;28;20484;-63
2021/06/03 10:57:55;;;;;;;7.32;4.57;;;691.80;793.60;;;;;;5010374;28;20368;-63
2021/06/03 11:00:36;;;;;;;8.07;4.15;;;692.10;793.60;;;;;;5010139;28;20374;-63
2021/06/03 11:03:04;;;;;;;7.20;4.63;;;691.80;793.60;;;;;;5010097;28;20026;-62
2021/06/03 11:05:34;;;;;;;6.30;4.00;;;691.90;793.60;;;;;;5010046;28;20026;-62
2021/06/03 11:08:24;;;;;;;5.43;4.20;;;691.80;793.60;;;;;;5009340;28;20384;-63
2021/06/03 11:10:51;;;;;;;5.30;4.38;;;716.80;819.20;;;;;;5010038;28;20506;-63
2021/06/03 11:13:24;;;;;;;7.63;4.40;;;716.80;844.80;;;;;;5010187;28;20060;-63
2021/06/03 11:16:03;;;;;;;6.43;4.20;;;717.10;844.80;;;;;;5009917;28;20025;-62
2021/06/03 11:18:45;;;;;;;7.78;4.38;;;717.30;844.80;;;;;;5010019;28;20547;-64
2021/06/03 11:23:58;;;;;;;8.68;4.38;;;717.00;819.20;;;;;;5014315;28;20058;-63
2021/06/03 11:29:22;;;;;;;6.53;4.38;;;717.40;793.60;;;;;;5014308;28;20029;-63
2021/06/03 11:31:51;;;;;;;5.57;4.78;;;717.30;819.20;;;;;;5013932;28;20109;-63
2021/06/03 11:34:23;;;;;;;7.30;4.43;;;717.10;793.60;;;;;;5013811;28;20107;-63
2021/06/03 11:36:59;;;;;;;6.25;4.60;;;716.80;793.60;;;;;;5013677;28;20058;-64
2021/06/03 11:39:31;;;;;;;6.03;4.70;;;691.70;793.60;;;;;;5013717;28;20160;-63
2021/06/03 11:42:21;;;;;;;5.82;4.45;;;692.10;768.00;;;;;;5013903;28;20496;-62
2021/06/03 11:45:07;;;;;;;5.13;4.53;;;691.80;768.00;;;;;;5013785;28;20097;-63
2021/06/03 11:47:39;;;;;;;5.60;4.35;;;716.90;819.20;;;;;;5013277;28;20101;-64
2021/06/03 11:50:16;;;;;;;5.03;4.53;;;717.20;819.20;;;;;;5013590;28;20077;-63
2021/06/03 11:52:54;;;;;;;7.43;4.82;;;717.30;819.20;;;;;;5013477;28;20026;-64
2021/06/03 11:55:48;;;;;;;6.72;4.40;;;717.20;793.60;;;;;;5013494;28;20030;-62
2021/06/03 11:58:38;;;;;;;8.90;4.82;;;716.80;844.80;;;;;;5013327;28;20064;-63
2021/06/03 12:01:09;;;;;;;7.60;4.68;;;691.80;793.60;;;;;;5013272;28;20038;-63
2021/06/03 12:03:44;;;;;;;5.78;4.95;;;691.80;819.20;;;;;;5013540;28;20024;-63
2021/06/03 12:06:16;;;;;;;6.95;5.00;;;691.30;844.80;;;;;;5013173;28;20030;-63
2021/06/03 12:08:44;;;;;;;6.80;4.75;;;666.30;870.40;;;;;;5013175;28;20109;-63
2021/06/03 12:11:25;;;;;;;7.85;5.22;;;666.50;870.40;;;;;;5013210;28;20161;-63
2021/06/03 12:14:10;;;;;;;5.45;4.85;;;665.90;896.00;;;;;;5013173;28;20033;-62
2021/06/03 12:16:38;;;;;;;5.63;4.97;;;666.30;896.00;;;;;;5013255;28;20081;-63
2021/06/03 12:19:15;;;;;;;6.72;4.53;;;666.10;896.00;;;;;;5012913;28;20099;-64
2021/06/03 12:21:43;;;;;;;6.15;4.50;;;666.30;896.00;;;;;;5012888;28;20038;-63
2021/06/03 12:24:10;;;;;;;7.68;5.10;;;666.10;921.60;;;;;;5013082;28;20092;-63
2021/06/03 12:26:39;;;;;;;7.13;4.60;;;691.20;896.00;;;;;;5013079;28;20076;-64
2021/06/03 12:29:06;;;;;;;6.97;5.13;;;691.40;896.00;;;;;;5012864;28;20030;-63
2021/06/03 12:31:32;;;;;;;7.40;5.30;;;691.30;896.00;;;;;;5011097;28;20113;-64
2021/06/03 12:33:58;;;;;;;6.15;4.13;;;691.80;896.00;;;;;;5010378;28;20037;-63
2021/06/03 12:36:26;;;;;;;5.10;4.38;;;691.40;896.00;;;;;;5011172;28;20018;-63